sensor_id;sensor_type;location;lat;lon;timestamp;pressure;altitude;pressure_sealevel;temperature;humidity
44825;BME280;30542;47.928;2.138;2023-03-13T00:02:06;99810.09;;;19.24;50.15
44825;BME280;30542;47.928;2.138;2023-03-13T00:07:07;99811.19;;;19.18;50.30
44825;BME280;30542;47.928;2.138;2023-03-13T00:12:09;99804.25;;;19.17;50.30
44825;BME280;30542;47.928;2.138;2023-03-13T00:17:09;99795.97;;;19.13;50.47
44825;BME280;30542;47.928;2.138;2023-03-13T00:22:09;99820.53;;;19.10;50.32
44825;BME280;30542;47.928;2.138;2023-03-13T00:27:10;99814.91;;;19.11;50.44
44825;BME280;30542;47.928;2.138;2023-03-13T00:32:10;99826.16;;;19.08;50.79
44825;BME280;30542;47.928;2.138;2023-03-13T00:37:10;99824.81;;;19.06;50.67
44825;BME280;30542;47.928;2.138;2023-03-13T00:42:11;99808.50;;;19.07;50.62
44825;BME280;30542;47.928;2.138;2023-03-13T00:47:11;99794.13;;;19.08;50.68
44825;BME280;30542;47.928;2.138;2023-03-13T00:52:11;99796.78;;;19.03;50.68
44825;BME280;30542;47.928;2.138;2023-03-13T00:57:12;99808.00;;;19.05;50.52
44825;BME280;30542;47.928;2.138;2023-03-13T01:02:12;99798.66;;;19.03;50.70
44825;BME280;30542;47.928;2.138;2023-03-13T01:07:12;99781.84;;;19.02;50.91
44825;BME280;30542;47.928;2.138;2023-03-13T01:12:13;99791.47;;;18.98;50.99
44825;BME280;30542;47.928;2.138;2023-03-13T01:17:13;99777.84;;;18.95;51.08
44825;BME280;30542;47.928;2.138;2023-03-13T01:22:13;99779.72;;;18.94;51.26
44825;BME280;30542;47.928;2.138;2023-03-13T01:27:14;99769.59;;;18.96;51.19
44825;BME280;30542;47.928;2.138;2023-03-13T01:32:14;99788.28;;;18.96;51.12
44825;BME280;30542;47.928;2.138;2023-03-13T01:37:15;99773.84;;;18.97;50.67
44825;BME280;30542;47.928;2.138;2023-03-13T01:42:15;99751.72;;;18.92;50.91
44825;BME280;30542;47.928;2.138;2023-03-13T01:47:15;99738.63;;;18.90;51.03
44825;BME280;30542;47.928;2.138;2023-03-13T01:52:27;99729.03;;;18.89;51.04
44825;BME280;30542;47.928;2.138;2023-03-13T01:57:36;99714.63;;;18.90;50.83
44825;BME280;30542;47.928;2.138;2023-03-13T02:02:42;99702.91;;;18.81;51.10
44825;BME280;30542;47.928;2.138;2023-03-13T02:07:52;99680.47;;;18.82;51.15
44825;BME280;30542;47.928;2.138;2023-03-13T02:12:54;99692.50;;;18.84;51.22
44825;BME280;30542;47.928;2.138;2023-03-13T02:17:55;99701.81;;;18.82;50.76
44825;BME280;30542;47.928;2.138;2023-03-13T02:28:19;99687.44;;;18.83;50.77
44825;BME280;30542;47.928;2.138;2023-03-13T02:33:21;99683.16;;;18.82;51.23
44825;BME280;30542;47.928;2.138;2023-03-13T02:38:28;99671.97;;;18.80;51.11
44825;BME280;30542;47.928;2.138;2023-03-13T02:43:33;99664.47;;;18.82;50.84
44825;BME280;30542;47.928;2.138;2023-03-13T02:48:37;99665.03;;;18.79;51.10
44825;BME280;30542;47.928;2.138;2023-03-13T02:53:38;99649.03;;;18.79;51.16
44825;BME280;30542;47.928;2.138;2023-03-13T02:58:40;99651.16;;;18.77;51.09
44825;BME280;30542;47.928;2.138;2023-03-13T03:03:41;99654.63;;;18.77;51.34
44825;BME280;30542;47.928;2.138;2023-03-13T03:08:42;99649.03;;;18.79;51.30
44825;BME280;30542;47.928;2.138;2023-03-13T03:13:43;99638.34;;;18.74;51.04
44825;BME280;30542;47.928;2.138;2023-03-13T03:18:43;99630.09;;;18.75;51.15
44825;BME280;30542;47.928;2.138;2023-03-13T03:23:44;99626.09;;;18.73;51.23
44825;BME280;30542;47.928;2.138;2023-03-13T03:28:44;99627.44;;;18.75;50.82
44825;BME280;30542;47.928;2.138;2023-03-13T03:33:45;99618.63;;;18.70;50.86
44825;BME280;30542;47.928;2.138;2023-03-13T03:38:46;99613.81;;;18.61;51.10
44825;BME280;30542;47.928;2.138;2023-03-13T03:43:51;99627.69;;;18.79;50.51
44825;BME280;30542;47.928;2.138;2023-03-13T03:48:51;99632.97;;;18.89;50.27
44825;BME280;30542;47.928;2.138;2023-03-13T03:53:51;99638.25;;;18.99;50.36
44825;BME280;30542;47.928;2.138;2023-03-13T03:58:52;99636.91;;;19.07;50.24
44825;BME280;30542;47.928;2.138;2023-03-13T04:03:52;99636.06;;;19.11;50.09
44825;BME280;30542;47.928;2.138;2023-03-13T04:08:53;99634.44;;;19.16;50.23
44825;BME280;30542;47.928;2.138;2023-03-13T04:13:54;99629.09;;;19.21;50.23
44825;BME280;30542;47.928;2.138;2023-03-13T04:18:55;99628.81;;;19.22;50.02
44825;BME280;30542;47.928;2.138;2023-03-13T04:23:55;99631.75;;;19.26;49.84
44825;BME280;30542;47.928;2.138;2023-03-13T04:28:55;99623.44;;;19.27;49.69
44825;BME280;30542;47.928;2.138;2023-03-13T04:33:56;99615.69;;;19.31;49.80
44825;BME280;30542;47.928;2.138;2023-03-13T04:38:56;99624.22;;;19.33;49.68
44825;BME280;30542;47.928;2.138;2023-03-13T04:43:57;99592.44;;;19.31;49.78
44825;BME280;30542;47.928;2.138;2023-03-13T04:48:57;99585.22;;;19.37;50.03
44825;BME280;30542;47.928;2.138;2023-03-13T04:53:57;99585.72;;;19.39;49.87
44825;BME280;30542;47.928;2.138;2023-03-13T04:58:58;99576.63;;;19.40;49.82
44825;BME280;30542;47.928;2.138;2023-03-13T05:03:58;99577.16;;;19.42;49.65
44825;BME280;30542;47.928;2.138;2023-03-13T05:08:58;99563.53;;;19.44;49.68
44825;BME280;30542;47.928;2.138;2023-03-13T05:13:59;99570.19;;;19.46;49.73
44825;BME280;30542;47.928;2.138;2023-03-13T05:18:59;99571.50;;;19.49;49.60
44825;BME280;30542;47.928;2.138;2023-03-13T05:23:59;99568.31;;;19.47;49.96
44825;BME280;30542;47.928;2.138;2023-03-13T05:29:00;99560.28;;;19.52;49.69
44825;BME280;30542;47.928;2.138;2023-03-13T05:34:00;99551.16;;;19.53;50.15
44825;BME280;30542;47.928;2.138;2023-03-13T05:39:01;99547.72;;;19.52;50.58
44825;BME280;30542;47.928;2.138;2023-03-13T05:44:01;99532.97;;;19.60;51.05
44825;BME280;30542;47.928;2.138;2023-03-13T05:49:01;99515.06;;;19.60;51.10
44825;BME280;30542;47.928;2.138;2023-03-13T05:54:02;99514.56;;;19.58;51.75
44825;BME280;30542;47.928;2.138;2023-03-13T05:59:02;99487.06;;;19.53;51.16
44825;BME280;30542;47.928;2.138;2023-03-13T06:04:03;99492.09;;;19.59;51.04
44825;BME280;30542;47.928;2.138;2023-03-13T06:09:03;99480.09;;;19.62;51.38
44825;BME280;30542;47.928;2.138;2023-03-13T06:14:03;99461.09;;;19.64;51.35
44825;BME280;30542;47.928;2.138;2023-03-13T06:19:04;99453.31;;;19.67;51.03
44825;BME280;30542;47.928;2.138;2023-03-13T06:24:04;99457.88;;;19.67;51.13
44825;BME280;30542;47.928;2.138;2023-03-13T06:29:05;99443.44;;;19.68;51.57
44825;BME280;30542;47.928;2.138;2023-03-13T06:34:05;99439.19;;;19.67;51.06
44825;BME280;30542;47.928;2.138;2023-03-13T06:39:06;99434.63;;;19.67;51.12
44825;BME280;30542;47.928;2.138;2023-03-13T06:44:07;99421.28;;;19.67;50.97
44825;BME280;30542;47.928;2.138;2023-03-13T06:49:07;99427.41;;;19.68;50.96
44825;BME280;30542;47.928;2.138;2023-03-13T06:54:08;99423.66;;;19.69;50.96
44825;BME280;30542;47.928;2.138;2023-03-13T06:59:08;99420.97;;;19.69;50.75
44825;BME280;30542;47.928;2.138;2023-03-13T07:04:12;99433.25;;;19.70;50.96
44825;BME280;30542;47.928;2.138;2023-03-13T07:09:12;99438.03;;;19.73;50.92
44825;BME280;30542;47.928;2.138;2023-03-13T07:14:13;99438.81;;;19.73;51.08
44825;BME280;30542;47.928;2.138;2023-03-13T07:19:14;99421.53;;;19.66;50.75
44825;BME280;30542;47.928;2.138;2023-03-13T07:24:14;99419.38;;;19.68;51.19
44825;BME280;30542;47.928;2.138;2023-03-13T07:29:15;99419.69;;;19.66;50.83
44825;BME280;30542;47.928;2.138;2023-03-13T07:34:15;99411.13;;;19.64;50.73
44825;BME280;30542;47.928;2.138;2023-03-13T07:39:16;99403.91;;;19.65;50.87
44825;BME280;30542;47.928;2.138;2023-03-13T07:44:16;99407.16;;;19.61;51.40
44825;BME280;30542;47.928;2.138;2023-03-13T07:49:17;99384.03;;;19.76;51.37
44825;BME280;30542;47.928;2.138;2023-03-13T07:54:17;99389.59;;;19.79;51.49
44825;BME280;30542;47.928;2.138;2023-03-13T07:59:18;99398.41;;;19.80;51.46
44825;BME280;30542;47.928;2.138;2023-03-13T08:04:18;99403.47;;;19.81;51.58
44825;BME280;30542;47.928;2.138;2023-03-13T08:09:19;99403.19;;;19.83;51.56
44825;BME280;30542;47.928;2.138;2023-03-13T08:14:19;99408.81;;;19.81;51.51
44825;BME280;30542;47.928;2.138;2023-03-13T08:19:20;99394.38;;;19.82;51.60
44825;BME280;30542;47.928;2.138;2023-03-13T08:24:20;99410.41;;;19.82;51.56
44825;BME280;30542;47.928;2.138;2023-03-13T08:29:21;99394.66;;;19.81;51.60
44825;BME280;30542;47.928;2.138;2023-03-13T08:34:21;99392.22;;;19.84;51.63
44825;BME280;30542;47.928;2.138;2023-03-13T08:39:22;99379.09;;;19.88;51.50
44825;BME280;30542;47.928;2.138;2023-03-13T08:44:22;99383.34;;;19.89;51.35
44825;BME280;30542;47.928;2.138;2023-03-13T08:49:22;99378.78;;;19.90;51.81
44825;BME280;30542;47.928;2.138;2023-03-13T08:54:23;99365.16;;;19.91;52.08
44825;BME280;30542;47.928;2.138;2023-03-13T08:59:23;99354.16;;;19.93;52.25
44825;BME280;30542;47.928;2.138;2023-03-13T09:04:23;99338.94;;;19.93;52.47
44825;BME280;30542;47.928;2.138;2023-03-13T09:09:24;99327.75;;;19.91;52.47
44825;BME280;30542;47.928;2.138;2023-03-13T09:14:24;99302.03;;;19.95;52.60
44825;BME280;30542;47.928;2.138;2023-03-13T09:19:24;99300.72;;;19.93;52.37
44825;BME280;30542;47.928;2.138;2023-03-13T09:24:25;99307.94;;;19.92;52.78
44825;BME280;30542;47.928;2.138;2023-03-13T09:29:26;99304.75;;;19.90;52.74
44825;BME280;30542;47.928;2.138;2023-03-13T09:34:26;99305.84;;;19.89;52.62
44825;BME280;30542;47.928;2.138;2023-03-13T09:39:27;99283.38;;;19.90;52.88
44825;BME280;30542;47.928;2.138;2023-03-13T09:44:31;99282.59;;;19.90;52.52
44825;BME280;30542;47.928;2.138;2023-03-13T09:49:41;99261.63;;;19.78;52.29
44825;BME280;30542;47.928;2.138;2023-03-13T09:54:52;99265.50;;;19.91;52.26
44825;BME280;30542;47.928;2.138;2023-03-13T10:05:24;99236.34;;;19.89;52.10
44825;BME280;30542;47.928;2.138;2023-03-13T10:11:02;99231.53;;;19.91;52.27
44825;BME280;30542;47.928;2.138;2023-03-13T10:16:07;99227.25;;;19.90;51.95
44825;BME280;30542;47.928;2.138;2023-03-13T10:21:20;99221.41;;;19.88;51.90
44825;BME280;30542;47.928;2.138;2023-03-13T10:26:28;99226.75;;;19.88;52.18
44825;BME280;30542;47.928;2.138;2023-03-13T10:31:33;99228.34;;;19.89;51.96
44825;BME280;30542;47.928;2.138;2023-03-13T10:36:46;99200.38;;;19.81;52.15
44825;BME280;30542;47.928;2.138;2023-03-13T10:41:48;99226.75;;;19.88;51.86
44825;BME280;30542;47.928;2.138;2023-03-13T10:46:49;99214.28;;;19.83;52.01
44825;BME280;30542;47.928;2.138;2023-03-13T10:52:01;99200.34;;;19.86;51.84
44825;BME280;30542;47.928;2.138;2023-03-13T11:02:26;99211.53;;;19.89;51.75
44825;BME280;30542;47.928;2.138;2023-03-13T11:07:35;99217.66;;;19.89;51.49
44825;BME280;30542;47.928;2.138;2023-03-13T11:12:44;99202.13;;;19.91;51.65
44825;BME280;30542;47.928;2.138;2023-03-13T11:28:51;99225.09;;;19.92;51.82
44825;BME280;30542;47.928;2.138;2023-03-13T11:34:14;99214.41;;;19.92;51.70
44825;BME280;30542;47.928;2.138;2023-03-13T11:50:07;99210.66;;;19.93;51.64
44825;BME280;30542;47.928;2.138;2023-03-13T11:55:24;99210.66;;;19.93;51.71
44825;BME280;30542;47.928;2.138;2023-03-13T12:00:35;99184.22;;;19.92;51.74
44825;BME280;30542;47.928;2.138;2023-03-13T12:05:44;99168.69;;;19.94;51.59
44825;BME280;30542;47.928;2.138;2023-03-13T12:10:56;99161.97;;;19.96;51.62
44825;BME280;30542;47.928;2.138;2023-03-13T12:16:05;99149.69;;;19.95;51.34
44825;BME280;30542;47.928;2.138;2023-03-13T12:26:56;99137.13;;;19.96;51.37
44825;BME280;30542;47.928;2.138;2023-03-13T12:32:19;99109.78;;;19.99;51.59
44825;BME280;30542;47.928;2.138;2023-03-13T12:37:38;99101.50;;;20.00;51.60
44825;BME280;30542;47.928;2.138;2023-03-13T12:42:46;99084.94;;;19.98;51.31
44825;BME280;30542;47.928;2.138;2023-03-13T12:48:15;99064.09;;;20.00;51.29
44825;BME280;30542;47.928;2.138;2023-03-13T13:04:19;99034.59;;;20.05;51.28
44825;BME280;30542;47.928;2.138;2023-03-13T13:09:24;99040.72;;;20.06;51.17
44825;BME280;30542;47.928;2.138;2023-03-13T13:24:52;98968.28;;;20.07;51.25
44825;BME280;30542;47.928;2.138;2023-03-13T13:29:54;98951.94;;;20.09;51.21
44825;BME280;30542;47.928;2.138;2023-03-13T13:45:34;98928.66;;;20.09;51.04
44825;BME280;30542;47.928;2.138;2023-03-13T13:50:34;98918.75;;;20.10;51.18
44825;BME280;30542;47.928;2.138;2023-03-13T14:00:52;98919.66;;;20.05;51.10
44825;BME280;30542;47.928;2.138;2023-03-13T14:06:02;98925.00;;;20.05;50.97
44825;BME280;30542;47.928;2.138;2023-03-13T14:11:23;98906.41;;;20.00;50.89
44825;BME280;30542;47.928;2.138;2023-03-13T14:16:26;98901.53;;;20.02;51.04
44825;BME280;30542;47.928;2.138;2023-03-13T14:21:26;98912.22;;;20.02;50.99
44825;BME280;30542;47.928;2.138;2023-03-13T14:26:28;98890.66;;;19.99;50.73
44825;BME280;30542;47.928;2.138;2023-03-13T14:41:48;98943.03;;;20.00;51.00
44825;BME280;30542;47.928;2.138;2023-03-13T14:46:53;98931.03;;;19.97;51.08
44825;BME280;30542;47.928;2.138;2023-03-13T14:52:12;98947.06;;;19.97;51.02
44825;BME280;30542;47.928;2.138;2023-03-13T14:57:16;98891.44;;;19.85;50.84
44825;BME280;30542;47.928;2.138;2023-03-13T15:02:27;98902.75;;;19.96;50.99
44825;BME280;30542;47.928;2.138;2023-03-13T15:07:46;98918.78;;;19.96;50.98
44825;BME280;30542;47.928;2.138;2023-03-13T15:12:48;98885.13;;;19.95;50.77
44825;BME280;30542;47.928;2.138;2023-03-13T15:17:49;98844.97;;;19.86;50.54
44825;BME280;30542;47.928;2.138;2023-03-13T15:22:49;98837.81;;;19.96;50.76
44825;BME280;30542;47.928;2.138;2023-03-13T15:27:50;98820.19;;;19.95;50.72
44825;BME280;30542;47.928;2.138;2023-03-13T15:32:50;98802.56;;;19.94;50.57
44825;BME280;30542;47.928;2.138;2023-03-13T15:37:51;98759.34;;;19.92;50.47
44825;BME280;30542;47.928;2.138;2023-03-13T15:42:52;98785.47;;;19.81;50.61
44825;BME280;30542;47.928;2.138;2023-03-13T15:47:53;98777.34;;;19.86;50.71
44825;BME280;30542;47.928;2.138;2023-03-13T15:52:54;98789.53;;;19.92;50.64
44825;BME280;30542;47.928;2.138;2023-03-13T15:57:54;98789.53;;;19.92;50.51
44825;BME280;30542;47.928;2.138;2023-03-13T16:02:54;98778.84;;;19.92;50.70
44825;BME280;30542;47.928;2.138;2023-03-13T16:07:55;98742.81;;;19.90;50.62
44825;BME280;30542;47.928;2.138;2023-03-13T16:12:56;98736.66;;;19.89;50.65
44825;BME280;30542;47.928;2.138;2023-03-13T16:17:56;98724.09;;;19.90;50.39
44825;BME280;30542;47.928;2.138;2023-03-13T16:22:57;98759.63;;;19.90;50.16
44825;BME280;30542;47.928;2.138;2023-03-13T16:27:57;98712.25;;;19.82;50.17
44825;BME280;30542;47.928;2.138;2023-03-13T16:32:58;98755.38;;;19.89;50.17
44825;BME280;30542;47.928;2.138;2023-03-13T16:37:59;98740.44;;;19.88;50.15
44825;BME280;30542;47.928;2.138;2023-03-13T16:43:00;98713.41;;;19.90;50.42
44825;BME280;30542;47.928;2.138;2023-03-13T16:48:00;98723.19;;;19.94;49.92
44825;BME280;30542;47.928;2.138;2023-03-13T16:53:01;98709.66;;;19.91;50.00
44825;BME280;30542;47.928;2.138;2023-03-13T16:58:01;98726.19;;;19.93;49.85
44825;BME280;30542;47.928;2.138;2023-03-13T17:03:01;98706.69;;;19.92;50.03
44825;BME280;30542;47.928;2.138;2023-03-13T17:08:02;98731.84;;;19.91;50.04
44825;BME280;30542;47.928;2.138;2023-03-13T17:13:02;98736.56;;;19.94;49.92
44825;BME280;30542;47.928;2.138;2023-03-13T17:18:04;98719.47;;;19.81;50.13
44825;BME280;30542;47.928;2.138;2023-03-13T17:23:05;98744.41;;;19.91;50.02
44825;BME280;30542;47.928;2.138;2023-03-13T17:28:05;98735.28;;;19.92;50.14
44825;BME280;30542;47.928;2.138;2023-03-13T17:33:05;98713.22;;;19.86;50.18
44825;BME280;30542;47.928;2.138;2023-03-13T17:38:08;98701.16;;;19.89;49.80
44825;BME280;30542;47.928;2.138;2023-03-13T17:43:10;98690.97;;;19.91;50.14
44825;BME280;30542;47.928;2.138;2023-03-13T17:48:11;98659.31;;;19.84;50.35
44825;BME280;30542;47.928;2.138;2023-03-13T17:53:12;98668.91;;;19.85;50.28
44825;BME280;30542;47.928;2.138;2023-03-13T17:58:12;98666.03;;;19.81;50.29
44825;BME280;30542;47.928;2.138;2023-03-13T18:03:13;98665.06;;;19.77;50.32
44825;BME280;30542;47.928;2.138;2023-03-13T18:08:13;98671.81;;;19.75;50.56
44825;BME280;30542;47.928;2.138;2023-03-13T18:13:13;98654.75;;;19.84;50.21
44825;BME280;30542;47.928;2.138;2023-03-13T18:18:15;98647.13;;;19.92;50.18
44825;BME280;30542;47.928;2.138;2023-03-13T18:23:16;98629.41;;;19.82;50.29
44825;BME280;30542;47.928;2.138;2023-03-13T18:28:16;98638.78;;;19.93;49.91
44825;BME280;30542;47.928;2.138;2023-03-13T18:33:16;98652.50;;;20.00;50.00
44825;BME280;30542;47.928;2.138;2023-03-13T18:38:17;98662.09;;;20.01;49.90
44825;BME280;30542;47.928;2.138;2023-03-13T18:43:18;98673.91;;;20.00;49.78
44825;BME280;30542;47.928;2.138;2023-03-13T18:48:18;98666.47;;;19.97;49.90
44825;BME280;30542;47.928;2.138;2023-03-13T18:53:19;98667.56;;;19.96;49.82
44825;BME280;30542;47.928;2.138;2023-03-13T18:58:19;98675.00;;;19.99;49.70
44825;BME280;30542;47.928;2.138;2023-03-13T19:03:19;98666.28;;;19.94;49.83
44825;BME280;30542;47.928;2.138;2023-03-13T19:08:20;98668.16;;;19.93;50.02
44825;BME280;30542;47.928;2.138;2023-03-13T19:13:21;98673.53;;;19.93;49.95
44825;BME280;30542;47.928;2.138;2023-03-13T19:18:21;98652.94;;;19.94;50.13
44825;BME280;30542;47.928;2.138;2023-03-13T19:23:21;98643.34;;;19.93;50.01
44825;BME280;30542;47.928;2.138;2023-03-13T19:28:22;98643.03;;;19.94;49.91
44825;BME280;30542;47.928;2.138;2023-03-13T19:33:22;98622.44;;;19.95;49.76
44825;BME280;30542;47.928;2.138;2023-03-13T19:38:22;98628.09;;;19.93;49.77
44825;BME280;30542;47.928;2.138;2023-03-13T19:43:23;98647.28;;;19.95;49.98
44825;BME280;30542;47.928;2.138;2023-03-13T19:48:23;98635.50;;;19.96;49.70
44825;BME280;30542;47.928;2.138;2023-03-13T19:53:23;98633.44;;;19.93;49.72
44825;BME280;30542;47.928;2.138;2023-03-13T19:58:24;98620.69;;;19.90;49.69
44825;BME280;30542;47.928;2.138;2023-03-13T20:03:24;98636.09;;;19.93;49.56
44825;BME280;30542;47.928;2.138;2023-03-13T20:08:24;98644.63;;;19.95;49.49
44825;BME280;30542;47.928;2.138;2023-03-13T20:13:25;98646.19;;;19.96;49.67
44825;BME280;30542;47.928;2.138;2023-03-13T20:18:25;98657.47;;;19.93;49.62
44825;BME280;30542;47.928;2.138;2023-03-13T20:23:26;98659.69;;;19.91;49.82
44825;BME280;30542;47.928;2.138;2023-03-13T20:28:27;98649.47;;;19.93;49.86
44825;BME280;30542;47.928;2.138;2023-03-13T20:33:27;98661.06;;;19.89;49.92
44825;BME280;30542;47.928;2.138;2023-03-13T20:38:27;98679.47;;;19.90;49.67
44825;BME280;30542;47.928;2.138;2023-03-13T20:43:28;98684.81;;;19.90;49.97
44825;BME280;30542;47.928;2.138;2023-03-13T20:48:29;98660.88;;;19.85;49.92
44825;BME280;30542;47.928;2.138;2023-03-13T20:53:30;98656.50;;;19.89;50.00
44825;BME280;30542;47.928;2.138;2023-03-13T20:58:30;98660.28;;;19.88;50.09
44825;BME280;30542;47.928;2.138;2023-03-13T21:03:31;98638.84;;;19.79;49.96
44825;BME280;30542;47.928;2.138;2023-03-13T21:08:34;98632.59;;;19.84;50.02
44825;BME280;30542;47.928;2.138;2023-03-13T21:13:35;98635.25;;;19.84;49.78
44825;BME280;30542;47.928;2.138;2023-03-13T21:18:35;98637.56;;;19.77;50.07
44825;BME280;30542;47.928;2.138;2023-03-13T21:23:36;98624.94;;;19.69;49.78
44825;BME280;30542;47.928;2.138;2023-03-13T21:28:38;98611.56;;;19.69;49.71
44825;BME280;30542;47.928;2.138;2023-03-13T21:33:39;98628.56;;;19.73;49.98
44825;BME280;30542;47.928;2.138;2023-03-13T21:38:40;98600.00;;;19.59;49.95
44825;BME280;30542;47.928;2.138;2023-03-13T21:43:42;98590.13;;;19.60;49.86
44825;BME280;30542;47.928;2.138;2023-03-13T21:48:44;98611.69;;;19.64;50.00
44825;BME280;30542;47.928;2.138;2023-03-13T21:53:44;98614.84;;;19.66;49.87
44825;BME280;30542;47.928;2.138;2023-03-13T21:58:45;98609.03;;;19.64;49.68
44825;BME280;30542;47.928;2.138;2023-03-13T22:03:45;98600.00;;;19.59;49.87
44825;BME280;30542;47.928;2.138;2023-03-13T22:08:47;98582.63;;;19.48;49.93
44825;BME280;30542;47.928;2.138;2023-03-13T22:13:48;98585.09;;;19.58;49.57
44825;BME280;30542;47.928;2.138;2023-03-13T22:18:48;98579.25;;;19.56;49.84
44825;BME280;30542;47.928;2.138;2023-03-13T22:23:48;98563.41;;;19.60;49.78
44825;BME280;30542;47.928;2.138;2023-03-13T22:28:49;98558.50;;;19.53;49.77
44825;BME280;30542;47.928;2.138;2023-03-13T22:33:49;98554.06;;;19.49;49.38
44825;BME280;30542;47.928;2.138;2023-03-13T22:38:50;98562.88;;;19.49;49.67
44825;BME280;30542;47.928;2.138;2023-03-13T22:43:50;98549.53;;;19.49;49.53
44825;BME280;30542;47.928;2.138;2023-03-13T22:48:51;98558.25;;;19.41;49.47
44825;BME280;30542;47.928;2.138;2023-03-13T22:53:51;98570.38;;;19.47;49.29
44825;BME280;30542;47.928;2.138;2023-03-13T22:58:52;98565.63;;;19.44;49.54
44825;BME280;30542;47.928;2.138;2023-03-13T23:03:52;98555.75;;;19.45;49.52
44825;BME280;30542;47.928;2.138;2023-03-13T23:08:52;98561.72;;;19.42;49.98
44825;BME280;30542;47.928;2.138;2023-03-13T23:13:53;98499.84;;;19.03;50.11
44825;BME280;30542;47.928;2.138;2023-03-13T23:18:53;98548.31;;;19.33;49.92
44825;BME280;30542;47.928;2.138;2023-03-13T23:23:53;98531.00;;;19.30;49.92
44825;BME280;30542;47.928;2.138;2023-03-13T23:28:54;98533.97;;;19.29;49.81
44825;BME280;30542;47.928;2.138;2023-03-13T23:33:54;98524.69;;;19.26;49.73
44825;BME280;30542;47.928;2.138;2023-03-13T23:38:55;98522.78;;;19.27;49.88
44825;BME280;30542;47.928;2.138;2023-03-13T23:43:57;98512.44;;;19.25;50.05
44825;BME280;30542;47.928;2.138;2023-03-13T23:48:59;98504.44;;;19.25;49.69
44825;BME280;30542;47.928;2.138;2023-03-13T23:54:00;98486.84;;;19.24;49.73
44825;BME280;30542;47.928;2.138;2023-03-13T23:59:00;98480.03;;;19.18;49.77
